KCOE

Coeur D'alene - Pappy Boyington Field Airport

Coeur D'alene, Idaho, USA
KCOE 230536Z 2306/2406 16006KT 3/4SM -SN BR FEW005 OVC010 FM231600 26004KT 1SM -SN OVC015 FM231800 28004KT P6SM OVC020 FM240500 20005KT P6SM OVC010
Issued Valid From Valid To
Jan-23 @ 05:36 UTC
(2 hours ago)
Jan-23 @ 06:00 UTC
(an hour ago)
Jan-24 @ 06:00 UTC
(in 23 hours)
Jan-23 @ 06:00 to Jan-23 @ 16:00
KCOE 230536Z 2306/2406 16006KT 3/4SM -SN BR FEW005 OVC010
Wind Visibility Clouds Conditions
160° at 6 knots 3/4 miles
  • Few at 500' AGL
  • Overcast at 1,000' AGL
  • Light Snow
  • Mist
From Jan-23 @ 16:00 to Jan-23 @ 18:00
FM231600 26004KT 1SM -SN OVC015
Wind Visibility Clouds Conditions
260° at 4 knots 1 miles
  • Overcast at 1,500' AGL
  • Light Snow
From Jan-23 @ 18:00 to Jan-24 @ 05:00
FM231800 28004KT P6SM OVC020
Wind Visibility Clouds
280° at 4 knots Greater than 6 miles
  • Overcast at 2,000' AGL
From Jan-24 @ 05:00 to Jan-24 @ 06:00
FM240500 20005KT P6SM OVC010
Wind Visibility Clouds
200° at 5 knots Greater than 6 miles
  • Overcast at 1,000' AGL
KCOE 230536Z 2306/2406 16006KT 3/4SM -SN BR FEW005 OVC010 FM231600 26004KT 1SM -SN OVC015 FM231800 28004KT P6SM OVC020 FM240500 20005KT P6SM OVC010
Issued Jan-23 @ 05:36 UTC
(2 hours ago)
Valid From Jan-23 @ 06:00 UTC
(an hour ago)
Valid To Jan-24 @ 06:00 UTC
(in 23 hours)
Jan-23 @ 06:00 - Jan-23 @ 16:00
Wind Visibility
160° at 6 knots 3/4 miles
Clouds
  • Few at 500' AGL
  • Overcast at 1,000' AGL
Conditions
  • Light Snow
  • Mist
From Jan-23 @ 16:00 - Jan-23 @ 18:00
Wind Visibility
260° at 4 knots 1 miles
Clouds
  • Overcast at 1,500' AGL
Conditions
  • Light Snow
From Jan-23 @ 18:00 - Jan-24 @ 05:00
Wind Visibility
280° at 4 knots Greater than 6 miles
Clouds
  • Overcast at 2,000' AGL
From Jan-24 @ 05:00 - Jan-24 @ 06:00
Wind Visibility
200° at 5 knots Greater than 6 miles
Clouds
  • Overcast at 1,000' AGL